createdAt,value
2016-11-17T00:00:52.016Z,0
2016-11-17T00:02:01.999Z,0
2016-11-17T00:03:11.975Z,0
2016-11-17T00:04:22.295Z,0
2016-11-17T00:05:32.635Z,0
2016-11-17T00:06:42.930Z,0
2016-11-17T00:07:52.712Z,0
2016-11-17T00:09:05.837Z,0
2016-11-17T00:10:16.344Z,0
2016-11-17T00:11:26.006Z,0
2016-11-17T00:12:36.317Z,0
2016-11-17T00:13:46.631Z,0
2016-11-17T00:14:56.920Z,0
2016-11-17T00:16:07.203Z,0
2016-11-17T00:17:17.484Z,0
2016-11-17T00:18:27.784Z,0
2016-11-17T00:19:38.071Z,0
2016-11-17T00:20:48.076Z,0
2016-11-17T00:21:58.377Z,0
2016-11-17T00:23:08.360Z,0
2016-11-17T00:24:18.662Z,0
2016-11-17T00:25:28.646Z,0
2016-11-17T00:26:38.654Z,0
2016-11-17T00:27:48.631Z,0
2016-11-17T00:28:58.653Z,0
2016-11-17T00:30:08.629Z,0
2016-11-17T00:31:18.925Z,0
2016-11-17T00:32:28.903Z,0
2016-11-17T00:33:39.230Z,0
2016-11-17T00:34:49.216Z,0
2016-11-17T00:35:59.192Z,0
2016-11-17T00:37:09.477Z,0
2016-11-17T00:38:19.449Z,0
2016-11-17T00:39:29.147Z,0
2016-11-17T00:40:39.480Z,0
2016-11-17T00:41:49.864Z,0
2016-11-17T00:42:59.898Z,0
2016-11-17T00:44:10.207Z,0
2016-11-17T00:45:20.197Z,0
2016-11-17T00:46:29.875Z,0
2016-11-17T00:47:39.842Z,0
2016-11-17T00:48:49.810Z,0
2016-11-17T00:50:00.088Z,0
2016-11-17T00:51:10.062Z,0
2016-11-17T00:52:20.389Z,0
2016-11-17T00:53:30.672Z,0
2016-11-17T00:54:40.652Z,0
2016-11-17T00:55:50.910Z,0
2016-11-17T00:57:01.241Z,0
2016-11-17T00:58:11.523Z,0
2016-11-17T00:59:21.840Z,0
2016-11-17T01:00:32.106Z,0
2016-11-17T01:01:42.389Z,0
2016-11-17T01:02:52.049Z,0
2016-11-17T01:04:02.330Z,0
2016-11-17T01:05:12.612Z,0
2016-11-17T01:06:22.907Z,0
2016-11-17T01:07:32.882Z,0
2016-11-17T01:08:43.157Z,0
2016-11-17T01:09:53.136Z,0
2016-11-17T01:11:03.117Z,0
2016-11-17T01:12:13.089Z,0
2016-11-17T01:13:23.379Z,0
2016-11-17T01:14:33.687Z,0
2016-11-17T01:15:43.958Z,0
2016-11-17T01:16:53.939Z,0
2016-11-17T01:18:04.222Z,0
2016-11-17T01:19:14.498Z,0
2016-11-17T01:20:24.474Z,0
2016-11-17T01:21:34.461Z,0
2016-11-17T01:22:44.734Z,0
2016-11-17T01:23:55.009Z,0
2016-11-17T01:25:04.351Z,0
2016-11-17T01:26:14.627Z,0
2016-11-17T01:27:24.609Z,0
2016-11-17T01:28:34.611Z,0
2016-11-17T01:29:44.883Z,0
2016-11-17T01:30:54.844Z,0
2016-11-17T01:32:05.127Z,0
2016-11-17T01:33:15.464Z,0
2016-11-17T01:34:25.119Z,0
2016-11-17T01:35:35.130Z,0
2016-11-17T01:36:45.404Z,0
2016-11-17T01:37:55.387Z,0
2016-11-17T01:39:05.352Z,0
2016-11-17T01:40:15.621Z,0
2016-11-17T01:41:25.617Z,0
2016-11-17T01:42:35.886Z,0
2016-11-17T01:43:46.178Z,0
2016-11-17T01:44:56.200Z,0
2016-11-17T01:46:06.171Z,0
2016-11-17T01:47:16.503Z,0
2016-11-17T01:48:26.785Z,0
2016-11-17T01:49:37.068Z,0
2016-11-17T01:50:46.748Z,0
2016-11-17T01:51:57.053Z,0
2016-11-17T01:53:07.341Z,0
2016-11-17T01:54:17.663Z,0
2016-11-17T01:55:27.931Z,0
2016-11-17T01:56:37.931Z,0
2016-11-17T01:57:47.901Z,0
2016-11-17T01:58:58.209Z,0
2016-11-17T02:00:08.493Z,0
2016-11-17T02:01:18.787Z,0
2016-11-17T02:02:29.070Z,0
2016-11-17T02:03:39.347Z,0
2016-11-17T02:04:49.017Z,0
2016-11-17T02:05:59.292Z,0
2016-11-17T02:07:09.586Z,0
2016-11-17T02:08:19.304Z,0
2016-11-17T02:09:29.615Z,0
2016-11-17T02:10:39.901Z,0
2016-11-17T02:11:50.185Z,0
2016-11-17T02:13:00.468Z,0
2016-11-17T02:14:10.447Z,0
2016-11-17T02:15:20.117Z,0
2016-11-17T02:16:29.784Z,0
2016-11-17T02:17:39.451Z,0
2016-11-17T02:18:49.721Z,0
2016-11-17T02:19:59.987Z,0
2016-11-17T02:21:10.275Z,0
2016-11-17T02:22:19.948Z,0
2016-11-17T02:23:29.917Z,0
2016-11-17T02:24:39.885Z,0
2016-11-17T02:25:49.890Z,0
2016-11-17T02:26:59.870Z,0
2016-11-17T02:28:10.159Z,0
2016-11-17T02:29:20.131Z,0
2016-11-17T02:30:30.105Z,0
2016-11-17T02:31:39.768Z,0
2016-11-17T02:32:49.113Z,0
2016-11-17T02:33:58.780Z,0
2016-11-17T02:35:09.050Z,0
2016-11-17T02:36:18.739Z,0
2016-11-17T02:37:28.701Z,0
2016-11-17T02:38:39.011Z,0
2016-11-17T02:39:49.282Z,0
2016-11-17T02:40:58.950Z,0
2016-11-17T02:42:09.236Z,0
2016-11-17T02:43:19.513Z,0
2016-11-17T02:44:29.178Z,0
2016-11-17T02:45:38.528Z,0
2016-11-17T02:46:48.838Z,0
2016-11-17T02:47:59.106Z,0
2016-11-17T02:49:09.077Z,0
2016-11-17T02:50:19.049Z,0
2016-11-17T02:51:29.050Z,0
2016-11-17T02:52:39.020Z,0
2016-11-17T02:53:48.971Z,0
2016-11-17T02:54:58.934Z,0
2016-11-17T02:56:08.900Z,0
2016-11-17T02:57:19.168Z,0
2016-11-17T02:58:29.467Z,0
2016-11-17T02:59:39.775Z,0
2016-11-17T03:00:49.768Z,0
2016-11-17T03:32:45.787Z,0
2016-11-17T03:33:55.743Z,0
2016-11-17T03:35:05.394Z,0
2016-11-17T03:36:15.666Z,0
2016-11-17T03:37:25.934Z,0
2016-11-17T03:38:35.956Z,0
2016-11-17T03:39:46.246Z,0
2016-11-17T03:40:56.233Z,0
2016-11-17T03:42:06.210Z,0
2016-11-17T03:43:16.174Z,0
2016-11-17T03:44:25.839Z,0
2016-11-17T03:45:35.810Z,0
2016-11-17T03:46:46.083Z,0
2016-11-17T03:47:55.749Z,0
2016-11-17T03:49:06.066Z,0
2016-11-17T03:50:16.031Z,0
2016-11-17T03:51:26.320Z,0
2016-11-17T03:52:36.282Z,0
2016-11-17T03:53:46.290Z,0
2016-11-17T03:54:56.592Z,0
2016-11-17T03:56:06.606Z,0
2016-11-17T03:57:16.909Z,0
2016-11-17T03:58:26.567Z,0
2016-11-17T03:59:36.854Z,0
2016-11-17T04:00:46.810Z,0
2016-11-17T04:01:56.790Z,0
2016-11-17T04:03:07.074Z,0
2016-11-17T04:04:17.051Z,0
2016-11-17T04:05:27.327Z,0
2016-11-17T04:06:37.608Z,0
2016-11-17T04:07:47.586Z,0
2016-11-17T04:08:57.542Z,0
2016-11-17T04:10:07.515Z,0
2016-11-17T04:11:17.476Z,0
2016-11-17T04:12:27.757Z,0
2016-11-17T04:13:37.768Z,0
2016-11-17T04:14:48.041Z,0
2016-11-17T04:15:58.333Z,0
2016-11-17T04:17:08.310Z,0
2016-11-17T04:18:18.266Z,0
2016-11-17T04:19:27.310Z,0
2016-11-17T04:20:37.279Z,0
2016-11-17T04:21:47.593Z,0
2016-11-17T04:22:57.244Z,0
2016-11-17T04:24:07.520Z,0
2016-11-17T04:25:17.491Z,0
2016-11-17T04:26:27.788Z,0
2016-11-17T04:27:38.090Z,0
2016-11-17T04:28:48.373Z,0
2016-11-17T04:29:58.075Z,0
2016-11-17T04:31:08.357Z,0
2016-11-17T04:32:32.645Z,0
2016-11-17T04:33:42.621Z,0
2016-11-17T04:34:52.581Z,0
2016-11-17T04:36:02.860Z,0
2016-11-17T04:37:12.830Z,0
2016-11-17T04:38:22.856Z,0
2016-11-17T04:39:32.819Z,0
2016-11-17T04:40:43.109Z,0
2016-11-17T04:41:53.373Z,0
2016-11-17T04:43:03.360Z,0
2016-11-17T04:44:13.021Z,0
2016-11-17T04:45:23.288Z,0
2016-11-17T04:46:33.259Z,0
2016-11-17T04:47:43.231Z,0
2016-11-17T04:48:53.562Z,0
2016-11-17T04:50:03.520Z,0
2016-11-17T04:51:13.486Z,0
2016-11-17T04:52:23.532Z,0
2016-11-17T04:53:33.812Z,0
2016-11-17T04:54:44.082Z,0
2016-11-17T04:55:53.745Z,0
2016-11-17T04:57:04.023Z,0
2016-11-17T04:58:14.295Z,0
2016-11-17T04:59:24.280Z,0
2016-11-17T05:00:34.250Z,0
2016-11-17T05:01:44.519Z,0
2016-11-17T05:02:54.494Z,0
2016-11-17T05:04:04.466Z,0
2016-11-17T05:05:14.477Z,0
2016-11-17T05:06:24.789Z,0
2016-11-17T05:07:35.060Z,0
2016-11-17T05:08:45.034Z,0
2016-11-17T05:09:54.999Z,0
2016-11-17T05:11:05.286Z,0
2016-11-17T05:12:15.269Z,0
2016-11-17T05:13:25.569Z,0
2016-11-17T05:14:35.226Z,0
2016-11-17T05:15:45.515Z,0
2016-11-17T05:16:54.869Z,0
2016-11-17T05:18:04.852Z,0
2016-11-17T05:19:15.124Z,0
2016-11-17T05:20:25.110Z,0
2016-11-17T05:21:35.092Z,0
2016-11-17T05:22:45.364Z,0
2016-11-17T05:23:55.345Z,0
2016-11-17T05:25:05.672Z,0
2016-11-17T05:26:15.024Z,0
2016-11-17T05:27:25.336Z,0
2016-11-17T05:28:34.402Z,0
2016-11-17T05:29:44.374Z,0
2016-11-17T05:30:54.333Z,0
2016-11-17T05:32:04.303Z,0
2016-11-17T05:33:14.275Z,0
2016-11-17T05:34:23.942Z,0
2016-11-17T05:35:34.219Z,0
2016-11-17T05:36:44.520Z,0
2016-11-17T05:37:54.512Z,0
2016-11-17T05:39:04.489Z,4
2016-11-17T05:40:15.005Z,4
2016-11-17T05:41:25.286Z,4
2016-11-17T05:42:35.563Z,0
2016-11-17T05:43:45.542Z,4
2016-11-17T05:44:55.522Z,4
2016-11-17T05:46:05.496Z,4
2016-11-17T05:47:15.475Z,4
2016-11-17T05:48:25.162Z,4
2016-11-17T05:49:34.849Z,4
2016-11-17T05:50:44.825Z,8
2016-11-17T05:51:55.108Z,8
2016-11-17T05:53:05.096Z,12
2016-11-17T05:54:15.389Z,8
2016-11-17T05:55:25.683Z,12
2016-11-17T05:56:35.655Z,16
2016-11-17T05:57:45.627Z,16
2016-11-17T05:58:55.903Z,16
2016-11-17T06:00:06.189Z,16
2016-11-17T06:01:16.152Z,24
2016-11-17T06:02:26.123Z,24
2016-11-17T06:03:36.094Z,24
2016-11-17T06:04:45.752Z,24
2016-11-17T06:05:56.093Z,20
2016-11-17T06:07:06.059Z,28
2016-11-17T06:08:16.023Z,32
2016-11-17T06:09:25.693Z,40
2016-11-17T06:10:35.971Z,44
2016-11-17T06:11:45.973Z,44
2016-11-17T06:12:55.935Z,48
2016-11-17T06:14:06.211Z,56
2016-11-17T06:15:16.177Z,60
2016-11-17T06:16:25.839Z,72
2016-11-17T06:17:35.806Z,96
2016-11-17T06:18:46.093Z,108
2016-11-17T06:19:56.370Z,108
2016-11-17T06:21:06.045Z,104
2016-11-17T06:22:15.777Z,132
2016-11-17T06:23:25.786Z,108
2016-11-17T06:24:35.756Z,108
2016-11-17T06:25:46.038Z,132
2016-11-17T06:26:56.304Z,152
2016-11-17T06:28:05.656Z,180
2016-11-17T06:29:15.992Z,184
2016-11-17T06:30:25.693Z,180
2016-11-17T06:31:35.366Z,180
2016-11-17T06:32:45.643Z,184
2016-11-17T06:33:55.615Z,180
2016-11-17T06:35:05.892Z,188
2016-11-17T06:36:15.878Z,192
2016-11-17T06:37:26.157Z,204
2016-11-17T06:38:36.127Z,212
2016-11-17T06:39:46.399Z,216
2016-11-17T06:40:56.681Z,232
2016-11-17T06:42:06.964Z,300
2016-11-17T06:43:17.232Z,316
2016-11-17T06:44:27.545Z,364
2016-11-17T06:45:36.896Z,376
2016-11-17T06:46:47.183Z,356
2016-11-17T06:47:57.160Z,356
2016-11-17T06:49:07.428Z,340
2016-11-17T06:50:17.386Z,368
2016-11-17T06:51:27.696Z,360
2016-11-17T06:52:37.717Z,344
2016-11-17T06:53:47.724Z,360
2016-11-17T06:54:58.025Z,432
2016-11-17T06:56:08.023Z,456
2016-11-17T06:57:18.310Z,484
2016-11-17T06:58:28.284Z,460
2016-11-17T06:59:38.266Z,464
2016-11-17T07:00:48.550Z,468
2016-11-17T07:01:58.206Z,524
2016-11-17T07:03:08.481Z,588
2016-11-17T07:04:18.206Z,548
2016-11-17T07:05:28.490Z,548
2016-11-17T07:06:38.766Z,524
2016-11-17T07:07:48.736Z,524
2016-11-17T07:08:58.745Z,564
2016-11-17T07:10:09.025Z,552
2016-11-17T07:11:18.992Z,552
2016-11-17T07:12:29.275Z,540
2016-11-17T07:13:39.569Z,552
2016-11-17T07:14:49.542Z,536
2016-11-17T07:15:59.815Z,536
2016-11-17T07:17:10.110Z,584
2016-11-17T07:18:20.093Z,636
2016-11-17T07:19:30.362Z,640
2016-11-17T07:20:40.652Z,652
2016-11-17T07:21:50.303Z,748
2016-11-17T07:23:00.582Z,700
2016-11-17T07:24:10.236Z,712
2016-11-17T07:25:20.215Z,756
2016-11-17T07:26:30.500Z,768
2016-11-17T07:27:40.784Z,876
2016-11-17T07:28:50.755Z,812
2016-11-17T07:30:00.115Z,788
2016-11-17T07:31:10.413Z,796
2016-11-17T07:32:20.691Z,764
2016-11-17T07:33:30.696Z,824
2016-11-17T07:34:40.976Z,888
2016-11-17T07:35:51.270Z,984
2016-11-17T07:37:01.241Z,1012
2016-11-17T07:38:10.902Z,1020
2016-11-17T07:39:21.253Z,1040
2016-11-17T07:40:30.950Z,1028
2016-11-17T07:41:40.915Z,1004
2016-11-17T07:42:51.193Z,1052
2016-11-17T07:44:01.475Z,976
2016-11-17T07:45:11.489Z,932
2016-11-17T07:46:21.468Z,908
2016-11-17T07:47:31.466Z,952
2016-11-17T07:48:41.732Z,988
2016-11-17T07:49:52.010Z,1164
2016-11-17T07:51:01.689Z,1200
2016-11-17T07:52:11.726Z,1172
2016-11-17T07:53:21.692Z,1036
2016-11-17T07:54:31.659Z,936
2016-11-17T07:55:41.975Z,872
2016-11-17T07:56:51.644Z,868
2016-11-17T07:58:01.920Z,864
2016-11-17T07:59:11.911Z,860
2016-11-17T08:00:22.192Z,876
2016-11-17T08:01:32.464Z,864
2016-11-17T08:02:42.448Z,860
2016-11-17T08:03:52.727Z,860
2016-11-17T08:05:02.424Z,864
2016-11-17T08:06:12.103Z,856
2016-11-17T08:07:22.383Z,824
2016-11-17T08:08:32.073Z,840
2016-11-17T08:09:42.353Z,924
2016-11-17T08:10:52.673Z,972
2016-11-17T08:12:02.664Z,1028
2016-11-17T08:13:12.328Z,1100
2016-11-17T08:14:21.997Z,1176
2016-11-17T08:15:31.956Z,1300
2016-11-17T08:16:41.922Z,1368
2016-11-17T08:17:52.193Z,1388
2016-11-17T08:19:02.474Z,1448
2016-11-17T08:20:12.466Z,1436
2016-11-17T08:21:22.435Z,1480
2016-11-17T08:22:32.728Z,1532
2016-11-17T08:23:42.082Z,1624
2016-11-17T08:24:52.358Z,1720
2016-11-17T08:26:02.640Z,1836
2016-11-17T08:27:11.992Z,1844
2016-11-17T08:28:21.949Z,1864
2016-11-17T08:29:32.226Z,1964
2016-11-17T08:30:42.197Z,2128
2016-11-17T08:31:52.171Z,2196
2016-11-17T08:33:02.468Z,2304
2016-11-17T08:34:12.449Z,2396
2016-11-17T08:35:22.742Z,2620
2016-11-17T08:36:33.016Z,2440
2016-11-17T08:37:43.302Z,2476
2016-11-17T08:38:53.605Z,2384
2016-11-17T08:40:03.932Z,2336
2016-11-17T08:41:14.222Z,2300
2016-11-17T08:42:24.498Z,2292
2016-11-17T08:43:34.474Z,2280
2016-11-17T08:44:44.751Z,2200
2016-11-17T08:45:54.778Z,1968
2016-11-17T08:47:05.044Z,1956
2016-11-17T08:48:15.341Z,1920
2016-11-17T08:49:25.358Z,1880
2016-11-17T08:50:35.330Z,1836
2016-11-17T08:51:45.315Z,1724
2016-11-17T08:52:55.612Z,1796
2016-11-17T08:54:05.577Z,1784
2016-11-17T08:55:15.870Z,1800
2016-11-17T08:56:25.934Z,1812
2016-11-17T08:57:35.908Z,1864
2016-11-17T08:58:45.875Z,1752
2016-11-17T08:59:55.857Z,1736
2016-11-17T09:01:05.818Z,1672
2016-11-17T09:02:16.148Z,1636
2016-11-17T09:03:26.121Z,1716
2016-11-17T09:04:36.358Z,1828
2016-11-17T09:05:46.365Z,1712
2016-11-17T09:06:56.071Z,1720
2016-11-17T09:08:06.356Z,1856
2016-11-17T09:09:15.394Z,1872
2016-11-17T09:10:25.409Z,1852
2016-11-17T09:11:35.671Z,1828
2016-11-17T09:12:45.377Z,1740
2016-11-17T09:13:55.655Z,1932
2016-11-17T09:15:05.926Z,1920
2016-11-17T09:16:15.898Z,1892
2016-11-17T09:17:26.173Z,1996
2016-11-17T09:18:36.171Z,2440
2016-11-17T09:19:46.134Z,2400
2016-11-17T09:20:56.145Z,2436
2016-11-17T09:22:06.129Z,2528
2016-11-17T09:23:16.093Z,2548
2016-11-17T09:24:26.389Z,2636
2016-11-17T09:25:36.666Z,2652
2016-11-17T09:26:46.632Z,2728
2016-11-17T09:27:56.919Z,2712
2016-11-17T09:29:07.186Z,2784
2016-11-17T09:30:17.513Z,3080
2016-11-17T09:31:27.490Z,3172
2016-11-17T09:32:37.494Z,3088
2016-11-17T09:33:47.772Z,2988
2016-11-17T09:34:58.066Z,3168
2016-11-17T09:36:08.355Z,3288
2016-11-17T09:37:18.849Z,3508
2016-11-17T09:38:28.844Z,3552
2016-11-17T09:39:38.860Z,3292
2016-11-17T09:40:49.205Z,3040
2016-11-17T09:41:58.880Z,2832
2016-11-17T09:43:08.908Z,2744
2016-11-17T09:44:19.208Z,2628
2016-11-17T09:45:29.501Z,2524
2016-11-17T09:46:39.806Z,2420
2016-11-17T09:47:49.872Z,2448
2016-11-17T09:48:59.885Z,2440
2016-11-17T09:50:09.882Z,2484
2016-11-17T09:51:20.000Z,2452
2016-11-17T09:52:30.347Z,2600
2016-11-17T09:53:40.654Z,2792
2016-11-17T09:54:51.004Z,2764
2016-11-17T09:56:01.325Z,2712
2016-11-17T09:57:11.631Z,2568
2016-11-17T09:58:22.429Z,2424
2016-11-17T09:59:32.722Z,2372
2016-11-17T10:00:43.055Z,2408
2016-11-17T10:01:52.752Z,2632
2016-11-17T10:03:02.751Z,2516
2016-11-17T10:04:13.075Z,2436
2016-11-17T10:05:23.386Z,2416
2016-11-17T10:06:33.400Z,2424
2016-11-17T10:07:43.405Z,2452
2016-11-17T10:08:53.694Z,2304
2016-11-17T10:10:03.712Z,2276
2016-11-17T10:11:13.712Z,2284
2016-11-17T10:12:23.715Z,2336
2016-11-17T10:13:34.007Z,2304
2016-11-17T10:14:43.974Z,2152
2016-11-17T10:15:54.256Z,2048
2016-11-17T10:17:03.938Z,2200
2016-11-17T10:18:13.643Z,2308
2016-11-17T10:19:23.920Z,2208
2016-11-17T10:20:33.928Z,2256
2016-11-17T10:21:44.230Z,2120
2016-11-17T10:22:54.227Z,1984
2016-11-17T10:24:03.912Z,2204
2016-11-17T10:25:14.204Z,2232
2016-11-17T10:26:24.202Z,2084
2016-11-17T10:27:33.884Z,2012
2016-11-17T10:28:44.000Z,1888
2016-11-17T10:29:53.672Z,1816
2016-11-17T10:31:03.666Z,1716
2016-11-17T10:32:13.662Z,1600
2016-11-17T10:33:23.671Z,1492
2016-11-17T10:34:33.673Z,1384
2016-11-17T10:35:43.649Z,1324
2016-11-17T10:36:53.630Z,1352
2016-11-17T10:38:03.907Z,1320
2016-11-17T10:39:14.230Z,1300
2016-11-17T10:40:24.207Z,1352
2016-11-17T10:41:34.516Z,1428
2016-11-17T10:42:44.507Z,1524
2016-11-17T10:43:54.503Z,1536
2016-11-17T10:45:04.795Z,1580
2016-11-17T10:46:15.131Z,1584
2016-11-17T10:47:25.471Z,1596
2016-11-17T10:48:35.442Z,1688
2016-11-17T10:49:45.500Z,1676
2016-11-17T10:50:55.178Z,1704
2016-11-17T10:52:05.195Z,1688
2016-11-17T10:53:15.173Z,1720
2016-11-17T10:54:24.862Z,1808
2016-11-17T10:55:34.840Z,1880
2016-11-17T10:56:45.131Z,1788
2016-11-17T10:57:54.811Z,1812
2016-11-17T10:59:04.541Z,1880
2016-11-17T11:00:14.526Z,1932
2016-11-17T11:01:24.801Z,1844
2016-11-17T11:02:35.114Z,1744
2016-11-17T11:03:45.472Z,1716
2016-11-17T11:04:55.749Z,1888
2016-11-17T11:06:05.750Z,1924
2016-11-17T11:07:16.051Z,1852
2016-11-17T11:08:26.362Z,1844
2016-11-17T11:09:36.659Z,1924
2016-11-17T11:10:46.641Z,1976
2016-11-17T11:11:56.629Z,1972
2016-11-17T11:13:06.291Z,1988
2016-11-17T11:14:16.284Z,2084
2016-11-17T11:15:25.951Z,2260
2016-11-17T11:16:35.615Z,2288
2016-11-17T11:17:45.596Z,2176
2016-11-17T11:18:54.961Z,2036
2016-11-17T11:20:04.941Z,1968
2016-11-17T11:21:14.663Z,1924
2016-11-17T11:22:24.995Z,1836
2016-11-17T11:23:34.999Z,1940
2016-11-17T11:24:44.978Z,2012
2016-11-17T11:25:54.571Z,2016
2016-11-17T11:27:04.856Z,1896
2016-11-17T11:28:14.534Z,1888
2016-11-17T11:29:24.510Z,1976
2016-11-17T11:30:34.803Z,2020
2016-11-17T11:31:45.087Z,1960
2016-11-17T11:32:55.368Z,1996
2016-11-17T11:34:05.057Z,1824
2016-11-17T11:35:15.040Z,1808
2016-11-17T11:36:25.017Z,1816
2016-11-17T11:37:35.305Z,1712
2016-11-17T11:38:45.034Z,1572
2016-11-17T11:39:55.335Z,1524
2016-11-17T11:41:05.543Z,1660
2016-11-17T11:42:15.826Z,1820
2016-11-17T11:43:25.192Z,1956
2016-11-17T11:44:35.163Z,1952
2016-11-17T11:45:45.456Z,2092
2016-11-17T11:46:55.892Z,2404
2016-11-17T11:48:06.169Z,2544
2016-11-17T11:49:16.486Z,2632
2016-11-17T11:50:26.793Z,2784
2016-11-17T11:51:37.091Z,2632
2016-11-17T11:52:47.081Z,2456
2016-11-17T11:53:57.386Z,2484
2016-11-17T11:55:07.778Z,2320
2016-11-17T11:56:17.468Z,2080
2016-11-17T11:57:27.744Z,1948
2016-11-17T11:58:38.029Z,1868
2016-11-17T11:59:48.047Z,1792
2016-11-17T12:00:57.763Z,1772
2016-11-17T12:02:07.791Z,1784
2016-11-17T12:03:18.077Z,1732
2016-11-17T12:04:28.369Z,1724
2016-11-17T12:05:38.664Z,1796
2016-11-17T12:06:48.336Z,1780
2016-11-17T12:07:58.359Z,1792
2016-11-17T12:09:08.356Z,1756
2016-11-17T12:10:18.322Z,1836
2016-11-17T12:11:28.308Z,1944
2016-11-17T12:12:38.281Z,1904
2016-11-17T12:13:47.951Z,1752
2016-11-17T12:14:57.675Z,1744
2016-11-17T12:16:07.992Z,1688
2016-11-17T12:17:18.317Z,1588
2016-11-17T12:18:28.325Z,1612
2016-11-17T12:19:38.402Z,1700
2016-11-17T12:20:48.402Z,1724
2016-11-17T12:21:58.693Z,1520
2016-11-17T12:23:08.989Z,1456
2016-11-17T12:24:18.972Z,1464
2016-11-17T12:25:28.984Z,1296
2016-11-17T12:26:39.268Z,1228
2016-11-17T12:27:48.933Z,1280
2016-11-17T12:28:59.220Z,1536
2016-11-17T12:30:09.232Z,1464
2016-11-17T12:31:18.970Z,1440
2016-11-17T12:32:28.954Z,1416
2016-11-17T12:33:39.253Z,1240
2016-11-17T12:34:49.239Z,1224
2016-11-17T12:35:59.524Z,1252
2016-11-17T12:37:09.248Z,1220
2016-11-17T12:38:18.912Z,1272
2016-11-17T12:39:28.906Z,1312
2016-11-17T12:40:38.880Z,1376
2016-11-17T12:41:48.871Z,1408
2016-11-17T12:42:59.201Z,1404
2016-11-17T12:44:08.919Z,1392
2016-11-17T12:45:19.208Z,1384
2016-11-17T12:46:28.895Z,1384
2016-11-17T12:47:39.194Z,1392
2016-11-17T12:48:49.178Z,1416
2016-11-17T12:49:59.162Z,1448
2016-11-17T12:51:09.446Z,1456
2016-11-17T12:52:19.815Z,1376
2016-11-17T12:53:30.103Z,1276
2016-11-17T12:54:40.079Z,1324
2016-11-17T12:55:50.069Z,1352
2016-11-17T12:57:00.349Z,1240
2016-11-17T12:58:10.659Z,1076
2016-11-17T12:59:20.955Z,992
2016-11-17T13:00:31.302Z,976
2016-11-17T13:01:41.583Z,928
2016-11-17T13:02:51.590Z,876
2016-11-17T13:04:01.571Z,836
2016-11-17T13:05:11.868Z,788
2016-11-17T13:06:21.859Z,784
2016-11-17T13:07:31.533Z,772
2016-11-17T13:08:41.516Z,676
2016-11-17T13:09:51.812Z,660
2016-11-17T13:11:01.806Z,656
2016-11-17T13:12:11.830Z,648
2016-11-17T13:13:21.811Z,672
2016-11-17T13:14:31.817Z,704
2016-11-17T13:15:41.799Z,760
2016-11-17T13:16:52.100Z,748
2016-11-17T13:18:01.819Z,696
2016-11-17T13:19:11.486Z,732
2016-11-17T13:20:21.474Z,756
2016-11-17T13:21:31.770Z,744
2016-11-17T13:22:42.092Z,788
2016-11-17T13:23:52.417Z,760
2016-11-17T13:25:02.727Z,820
2016-11-17T13:26:13.055Z,816
2016-11-17T13:27:23.351Z,716
2016-11-17T13:28:33.347Z,676
2016-11-17T13:29:43.337Z,652
2016-11-17T13:30:53.635Z,608
2016-11-17T13:32:03.917Z,576
2016-11-17T13:33:13.889Z,636
2016-11-17T13:34:24.192Z,676
2016-11-17T13:35:34.489Z,724
2016-11-17T13:36:44.789Z,740
2016-11-17T13:37:54.452Z,740
2016-11-17T13:39:04.460Z,776
2016-11-17T13:40:14.759Z,832
2016-11-17T13:41:24.798Z,868
2016-11-17T13:42:35.114Z,816
2016-11-17T13:43:45.402Z,716
2016-11-17T13:44:55.706Z,676
2016-11-17T13:46:06.013Z,668
2016-11-17T13:47:16.001Z,560
2016-11-17T13:48:26.308Z,504
2016-11-17T13:49:36.298Z,572
2016-11-17T13:50:46.591Z,620
2016-11-17T13:51:56.939Z,580
2016-11-17T13:53:07.260Z,500
2016-11-17T13:54:17.560Z,452
2016-11-17T13:55:27.552Z,428
2016-11-17T13:56:37.238Z,432
2016-11-17T13:57:47.221Z,428
2016-11-17T13:58:56.906Z,408
2016-11-17T14:00:07.225Z,396
2016-11-17T14:01:17.216Z,376
2016-11-17T14:02:27.212Z,344
2016-11-17T14:03:37.254Z,324
2016-11-17T14:04:47.340Z,296
2016-11-17T14:05:57.652Z,284
2016-11-17T14:07:07.641Z,284
2016-11-17T14:08:17.951Z,300
2016-11-17T14:09:27.635Z,308
2016-11-17T14:10:37.939Z,316
2016-11-17T14:11:47.620Z,336
2016-11-17T14:12:57.945Z,336
2016-11-17T14:14:07.950Z,332
2016-11-17T14:15:18.253Z,328
2016-11-17T14:16:28.249Z,344
2016-11-17T14:17:38.238Z,340
2016-11-17T14:18:48.557Z,344
2016-11-17T14:19:58.261Z,340
2016-11-17T14:21:08.296Z,388
2016-11-17T14:22:18.301Z,352
2016-11-17T14:23:28.279Z,360
2016-11-17T14:24:38.606Z,316
2016-11-17T14:25:48.601Z,264
2016-11-17T14:26:58.284Z,244
2016-11-17T14:28:08.291Z,228
2016-11-17T14:29:18.327Z,216
2016-11-17T14:30:28.630Z,196
2016-11-17T14:31:38.594Z,168
2016-11-17T14:32:48.256Z,168
2016-11-17T14:33:58.238Z,184
2016-11-17T14:35:08.555Z,176
2016-11-17T14:36:18.563Z,168
2016-11-17T14:37:28.573Z,204
2016-11-17T14:38:38.556Z,204
2016-11-17T14:39:48.899Z,188
2016-11-17T14:40:58.890Z,176
2016-11-17T14:42:09.200Z,152
2016-11-17T14:43:19.183Z,136
2016-11-17T14:44:29.189Z,124
2016-11-17T14:45:39.485Z,132
2016-11-17T14:46:49.830Z,128
2016-11-17T14:47:59.817Z,120
2016-11-17T14:49:09.491Z,108
2016-11-17T14:50:19.792Z,100
2016-11-17T14:51:30.143Z,92
2016-11-17T14:52:39.216Z,84
2016-11-17T14:53:49.238Z,76
2016-11-17T14:54:59.539Z,68
2016-11-17T14:56:09.562Z,68
2016-11-17T14:57:19.895Z,60
2016-11-17T14:58:30.243Z,56
2016-11-17T14:59:40.536Z,48
2016-11-17T15:00:50.229Z,48
2016-11-17T15:02:00.208Z,44
2016-11-17T15:03:10.247Z,40
2016-11-17T15:04:20.255Z,32
2016-11-17T15:05:30.555Z,28
2016-11-17T15:06:40.861Z,24
2016-11-17T15:07:50.850Z,20
2016-11-17T15:09:01.146Z,20
2016-11-17T15:10:11.144Z,16
2016-11-17T15:11:20.822Z,16
2016-11-17T15:12:31.127Z,12
2016-11-17T15:13:41.429Z,16
2016-11-17T15:14:51.423Z,12
2016-11-17T15:16:01.412Z,12
2016-11-17T15:17:11.076Z,12
2016-11-17T15:18:21.077Z,12
2016-11-17T15:19:31.060Z,12
2016-11-17T15:20:41.050Z,12
2016-11-17T15:21:51.041Z,8
2016-11-17T15:23:01.346Z,8
2016-11-17T15:24:11.043Z,8
2016-11-17T15:25:21.361Z,8
2016-11-17T15:26:31.678Z,4
2016-11-17T15:27:41.970Z,8
2016-11-17T15:28:51.967Z,8
2016-11-17T15:30:02.283Z,8
2016-11-17T15:31:12.592Z,8
2016-11-17T15:32:22.597Z,4
2016-11-17T15:33:32.588Z,4
2016-11-17T15:34:41.964Z,4
2016-11-17T15:35:52.267Z,4
2016-11-17T15:37:02.261Z,4
2016-11-17T15:38:12.242Z,0
2016-11-17T15:39:22.571Z,0
2016-11-17T15:40:32.871Z,4
2016-11-17T15:41:43.151Z,4
2016-11-17T15:42:53.456Z,4
2016-11-17T15:44:03.765Z,0
2016-11-17T15:45:14.068Z,0
2016-11-17T15:46:23.748Z,0
2016-11-17T15:47:33.777Z,0
2016-11-17T15:48:44.088Z,0
2016-11-17T15:49:54.081Z,0
2016-11-17T15:51:04.387Z,0
2016-11-17T15:52:14.378Z,0
2016-11-17T15:53:24.351Z,0
2016-11-17T15:54:34.646Z,0
2016-11-17T15:55:44.940Z,0
2016-11-17T15:56:54.627Z,0
2016-11-17T15:58:04.596Z,0
2016-11-17T15:59:14.820Z,0
2016-11-17T16:00:24.784Z,0
2016-11-17T16:01:35.124Z,0
2016-11-17T16:02:45.415Z,0
2016-11-17T16:03:55.401Z,0
2016-11-17T16:05:05.423Z,0
2016-11-17T16:06:15.709Z,0
2016-11-17T16:07:25.697Z,0
2016-11-17T16:08:36.036Z,0
2016-11-17T16:09:46.043Z,0
2016-11-17T16:10:56.011Z,0
2016-11-17T16:12:05.993Z,0
2016-11-17T16:13:16.354Z,0
2016-11-17T16:14:26.033Z,0
2016-11-17T16:15:36.049Z,0
2016-11-17T16:16:46.024Z,0
2016-11-17T16:17:55.406Z,0
2016-11-17T16:19:05.717Z,0
2016-11-17T16:20:15.408Z,0
2016-11-17T16:21:25.696Z,0
2016-11-17T16:22:35.403Z,0
2016-11-17T16:23:45.716Z,0
2016-11-17T16:24:55.709Z,0
2016-11-17T16:26:06.028Z,0
2016-11-17T16:27:16.347Z,0
2016-11-17T16:28:26.678Z,0
2016-11-17T16:29:36.984Z,0
2016-11-17T16:30:47.004Z,0
2016-11-17T16:31:57.294Z,0
2016-11-17T16:33:07.319Z,0
2016-11-17T16:34:17.301Z,0
2016-11-17T16:35:27.628Z,0
2016-11-17T16:36:38.011Z,0
2016-11-17T16:37:47.702Z,0
2016-11-17T16:38:58.024Z,0
2016-11-17T16:40:07.721Z,0
2016-11-17T16:41:17.714Z,0
2016-11-17T16:42:27.523Z,0
2016-11-17T16:43:37.547Z,0
2016-11-17T16:44:47.544Z,0
2016-11-17T16:45:57.543Z,0
2016-11-17T16:47:07.555Z,0
2016-11-17T16:48:17.259Z,0
2016-11-17T16:49:27.571Z,0
2016-11-17T16:50:37.590Z,0
2016-11-17T16:51:47.891Z,0
2016-11-17T16:52:57.575Z,0
2016-11-17T16:54:07.565Z,0
2016-11-17T16:55:17.850Z,0
2016-11-17T16:56:27.840Z,0